sensor_id;sensor_type;location;lat;lon;timestamp;pressure;altitude;pressure_sealevel;temperature;humidity
59493;BME280;45497;43.996;22.876;2023-07-02T00:02:16;100305.81;;;20.59;62.67
59493;BME280;45497;43.996;22.876;2023-07-02T00:04:42;100301.81;;;20.44;63.00
59493;BME280;45497;43.996;22.876;2023-07-02T00:07:08;100298.97;;;20.51;62.80
59493;BME280;45497;43.996;22.876;2023-07-02T00:09:34;100294.88;;;20.49;62.65
59493;BME280;45497;43.996;22.876;2023-07-02T00:11:59;100291.22;;;20.55;62.59
59493;BME280;45497;43.996;22.876;2023-07-02T00:14:25;100283.53;;;20.47;62.33
59493;BME280;45497;43.996;22.876;2023-07-02T00:16:50;100282.81;;;20.34;62.76
59493;BME280;45497;43.996;22.876;2023-07-02T00:19:16;100280.75;;;20.41;62.41
59493;BME280;45497;43.996;22.876;2023-07-02T00:21:42;100269.75;;;20.43;62.15
59493;BME280;45497;43.996;22.876;2023-07-02T00:24:08;100272.44;;;20.43;61.91
59493;BME280;45497;43.996;22.876;2023-07-02T00:26:35;100276.34;;;20.52;61.89
59493;BME280;45497;43.996;22.876;2023-07-02T00:29:02;100276.22;;;20.42;62.20
59493;BME280;45497;43.996;22.876;2023-07-02T00:31:29;100279.38;;;20.39;62.41
59493;BME280;45497;43.996;22.876;2023-07-02T00:33:54;100281.97;;;20.51;61.97
59493;BME280;45497;43.996;22.876;2023-07-02T00:36:20;100275.94;;;20.43;61.99
59493;BME280;45497;43.996;22.876;2023-07-02T00:38:48;100271.63;;;20.42;61.96
59493;BME280;45497;43.996;22.876;2023-07-02T00:41:14;100277.59;;;20.44;61.88
59493;BME280;45497;43.996;22.876;2023-07-02T00:43:40;100274.41;;;20.48;61.76
59493;BME280;45497;43.996;22.876;2023-07-02T00:46:14;100280.59;;;20.48;61.53
59493;BME280;45497;43.996;22.876;2023-07-02T00:48:50;100285.59;;;20.56;61.32
59493;BME280;45497;43.996;22.876;2023-07-02T00:51:19;100282.97;;;20.61;61.29
59493;BME280;45497;43.996;22.876;2023-07-02T00:53:46;100277.75;;;20.55;61.52
59493;BME280;45497;43.996;22.876;2023-07-02T00:56:12;100282.38;;;20.59;61.45
59493;BME280;45497;43.996;22.876;2023-07-02T00:58:40;100273.25;;;20.43;61.70
59493;BME280;45497;43.996;22.876;2023-07-02T01:01:06;100270.22;;;20.40;61.84
59493;BME280;45497;43.996;22.876;2023-07-02T01:03:32;100275.78;;;20.50;61.57
59493;BME280;45497;43.996;22.876;2023-07-02T01:05:59;100282.16;;;20.44;61.54
59493;BME280;45497;43.996;22.876;2023-07-02T01:08:26;100274.00;;;20.39;61.57
59493;BME280;45497;43.996;22.876;2023-07-02T01:10:52;100279.16;;;20.40;61.56
59493;BME280;45497;43.996;22.876;2023-07-02T01:13:21;100271.00;;;20.35;61.47
59493;BME280;45497;43.996;22.876;2023-07-02T01:15:49;100277.41;;;20.34;61.61
59493;BME280;45497;43.996;22.876;2023-07-02T01:18:15;100283.44;;;20.41;61.41
59493;BME280;45497;43.996;22.876;2023-07-02T01:20:42;100274.81;;;20.39;61.39
59493;BME280;45497;43.996;22.876;2023-07-02T01:23:08;100284.03;;;20.43;61.42
59493;BME280;45497;43.996;22.876;2023-07-02T01:25:34;100289.34;;;20.38;61.68
59493;BME280;45497;43.996;22.876;2023-07-02T01:28:02;100278.50;;;20.33;61.61
59493;BME280;45497;43.996;22.876;2023-07-02T01:30:27;100286.16;;;20.41;61.61
59493;BME280;45497;43.996;22.876;2023-07-02T01:32:53;100285.66;;;20.44;61.39
59493;BME280;45497;43.996;22.876;2023-07-02T01:35:18;100279.88;;;20.36;61.69
59493;BME280;45497;43.996;22.876;2023-07-02T01:37:44;100270.09;;;20.30;61.93
59493;BME280;45497;43.996;22.876;2023-07-02T01:40:10;100273.34;;;20.32;61.69
59493;BME280;45497;43.996;22.876;2023-07-02T01:42:36;100276.03;;;20.32;61.68
59493;BME280;45497;43.996;22.876;2023-07-02T01:45:01;100274.56;;;20.41;61.37
59493;BME280;45497;43.996;22.876;2023-07-02T01:47:27;100277.22;;;20.58;60.67
59493;BME280;45497;43.996;22.876;2023-07-02T01:49:52;100280.34;;;20.67;60.35
59493;BME280;45497;43.996;22.876;2023-07-02T01:52:18;100276.69;;;20.73;60.20
59493;BME280;45497;43.996;22.876;2023-07-02T01:54:45;100281.75;;;20.69;60.42
59493;BME280;45497;43.996;22.876;2023-07-02T01:57:10;100264.28;;;20.55;61.01
59493;BME280;45497;43.996;22.876;2023-07-02T01:59:36;100258.81;;;20.50;61.29
59493;BME280;45497;43.996;22.876;2023-07-02T02:02:01;100254.81;;;20.52;61.38
59493;BME280;45497;43.996;22.876;2023-07-02T02:04:27;100250.31;;;20.58;61.26
59493;BME280;45497;43.996;22.876;2023-07-02T02:06:53;100259.44;;;20.74;60.88
59493;BME280;45497;43.996;22.876;2023-07-02T02:09:19;100256.25;;;20.77;60.93
59493;BME280;45497;43.996;22.876;2023-07-02T02:11:47;100253.88;;;20.80;60.73
59493;BME280;45497;43.996;22.876;2023-07-02T02:14:13;100254.94;;;20.79;60.95
59493;BME280;45497;43.996;22.876;2023-07-02T02:16:39;100243.34;;;20.79;61.01
59493;BME280;45497;43.996;22.876;2023-07-02T02:19:04;100252.84;;;20.81;61.32
59493;BME280;45497;43.996;22.876;2023-07-02T02:21:30;100243.34;;;20.79;61.52
59493;BME280;45497;43.996;22.876;2023-07-02T02:23:56;100239.09;;;20.83;61.33
59493;BME280;45497;43.996;22.876;2023-07-02T02:26:22;100239.72;;;20.90;61.76
59493;BME280;45497;43.996;22.876;2023-07-02T02:28:48;100240.81;;;20.89;61.77
59493;BME280;45497;43.996;22.876;2023-07-02T02:31:15;100234.66;;;20.94;61.71
59493;BME280;45497;43.996;22.876;2023-07-02T02:33:40;100227.97;;;20.96;61.52
59493;BME280;45497;43.996;22.876;2023-07-02T02:36:06;100225.25;;;20.96;61.45
59493;BME280;45497;43.996;22.876;2023-07-02T02:38:31;100240.09;;;20.99;61.76
59493;BME280;45497;43.996;22.876;2023-07-02T02:40:57;100219.88;;;20.96;61.59
59493;BME280;45497;43.996;22.876;2023-07-02T02:43:22;100228.38;;;20.88;61.59
59493;BME280;45497;43.996;22.876;2023-07-02T02:45:48;100225.44;;;20.68;61.90
59493;BME280;45497;43.996;22.876;2023-07-02T02:48:13;100220.97;;;20.56;62.13
59493;BME280;45497;43.996;22.876;2023-07-02T02:50:39;100224.38;;;20.52;62.26
59493;BME280;45497;43.996;22.876;2023-07-02T02:53:08;100228.72;;;20.53;62.13
59493;BME280;45497;43.996;22.876;2023-07-02T02:55:35;100225.59;;;20.61;62.01
59493;BME280;45497;43.996;22.876;2023-07-02T02:58:00;100231.31;;;20.65;61.92
59493;BME280;45497;43.996;22.876;2023-07-02T03:00:25;100232.84;;;20.60;62.95
59493;BME280;45497;43.996;22.876;2023-07-02T03:02:51;100227.25;;;20.62;63.03
59493;BME280;45497;43.996;22.876;2023-07-02T03:05:16;100234.31;;;20.68;62.66
59493;BME280;45497;43.996;22.876;2023-07-02T03:07:42;100240.84;;;20.72;62.30
59493;BME280;45497;43.996;22.876;2023-07-02T03:10:08;100238.59;;;20.64;62.13
59493;BME280;45497;43.996;22.876;2023-07-02T03:12:33;100242.09;;;20.65;62.07
59493;BME280;45497;43.996;22.876;2023-07-02T03:14:59;100253.97;;;20.69;62.09
59493;BME280;45497;43.996;22.876;2023-07-02T03:17:25;100247.78;;;20.68;62.03
59493;BME280;45497;43.996;22.876;2023-07-02T03:19:51;100238.84;;;20.62;62.15
59493;BME280;45497;43.996;22.876;2023-07-02T03:22:16;100245.59;;;20.65;62.24
59493;BME280;45497;43.996;22.876;2023-07-02T03:24:42;100249.00;;;20.77;61.88
59493;BME280;45497;43.996;22.876;2023-07-02T03:27:07;100259.91;;;20.88;61.62
59493;BME280;45497;43.996;22.876;2023-07-02T03:29:36;100251.41;;;20.96;61.54
59493;BME280;45497;43.996;22.876;2023-07-02T03:32:04;100252.22;;;20.96;61.48
59493;BME280;45497;43.996;22.876;2023-07-02T03:34:29;100253.03;;;20.97;61.45
59493;BME280;45497;43.996;22.876;2023-07-02T03:36:55;100247.22;;;21.05;61.22
59493;BME280;45497;43.996;22.876;2023-07-02T03:39:20;100247.84;;;21.12;61.08
59493;BME280;45497;43.996;22.876;2023-07-02T03:41:46;100251.88;;;21.15;61.00
59493;BME280;45497;43.996;22.876;2023-07-02T03:44:11;100263.78;;;21.19;60.84
59493;BME280;45497;43.996;22.876;2023-07-02T03:46:37;100266.78;;;21.23;60.87
59493;BME280;45497;43.996;22.876;2023-07-02T03:49:03;100265.69;;;21.18;60.81
59493;BME280;45497;43.996;22.876;2023-07-02T03:51:29;100264.63;;;21.19;60.77
59493;BME280;45497;43.996;22.876;2023-07-02T03:53:55;100256.53;;;21.19;60.67
59493;BME280;45497;43.996;22.876;2023-07-02T03:56:20;100260.03;;;21.20;60.98
59493;BME280;45497;43.996;22.876;2023-07-02T03:58:46;100258.16;;;21.20;61.12
59493;BME280;45497;43.996;22.876;2023-07-02T04:01:11;100250.13;;;21.26;61.05
59493;BME280;45497;43.996;22.876;2023-07-02T04:03:37;100262.34;;;21.33;60.77
59493;BME280;45497;43.996;22.876;2023-07-02T04:06:03;100257.50;;;21.35;60.92
59493;BME280;45497;43.996;22.876;2023-07-02T04:08:31;100250.19;;;21.31;60.97
59493;BME280;45497;43.996;22.876;2023-07-02T04:10:57;100257.47;;;21.30;60.74
59493;BME280;45497;43.996;22.876;2023-07-02T04:13:22;100257.91;;;21.22;60.96
59493;BME280;45497;43.996;22.876;2023-07-02T04:15:48;100256.00;;;21.23;60.78
59493;BME280;45497;43.996;22.876;2023-07-02T04:18:13;100266.94;;;21.33;60.50
59493;BME280;45497;43.996;22.876;2023-07-02T04:20:39;100268.03;;;21.37;60.47
59493;BME280;45497;43.996;22.876;2023-07-02T04:23:05;100282.97;;;21.45;60.48
59493;BME280;45497;43.996;22.876;2023-07-02T04:25:31;100276.13;;;21.37;60.55
59493;BME280;45497;43.996;22.876;2023-07-02T04:27:56;100283.72;;;21.40;60.42
59493;BME280;45497;43.996;22.876;2023-07-02T04:30:24;100276.38;;;21.35;60.42
59493;BME280;45497;43.996;22.876;2023-07-02T04:32:53;100290.44;;;21.37;60.41
59493;BME280;45497;43.996;22.876;2023-07-02T04:35:18;100296.16;;;21.41;60.39
59493;BME280;45497;43.996;22.876;2023-07-02T04:37:44;100290.47;;;21.43;60.50
59493;BME280;45497;43.996;22.876;2023-07-02T04:40:10;100280.91;;;21.30;60.43
59493;BME280;45497;43.996;22.876;2023-07-02T04:42:36;100293.00;;;21.27;60.72
59493;BME280;45497;43.996;22.876;2023-07-02T04:45:06;100292.88;;;21.39;60.59
59493;BME280;45497;43.996;22.876;2023-07-02T04:47:34;100296.81;;;21.48;60.32
59493;BME280;45497;43.996;22.876;2023-07-02T04:50:01;100299.53;;;21.53;60.21
59493;BME280;45497;43.996;22.876;2023-07-02T04:52:26;100301.47;;;21.58;60.36
59493;BME280;45497;43.996;22.876;2023-07-02T04:54:52;100313.38;;;21.62;60.35
59493;BME280;45497;43.996;22.876;2023-07-02T04:57:18;100319.88;;;21.61;60.37
59493;BME280;45497;43.996;22.876;2023-07-02T04:59:43;100317.09;;;21.56;60.44
59493;BME280;45497;43.996;22.876;2023-07-02T05:02:09;100331.72;;;21.60;60.41
59493;BME280;45497;43.996;22.876;2023-07-02T05:04:35;100328.25;;;21.65;60.21
59493;BME280;45497;43.996;22.876;2023-07-02T05:07:05;100342.75;;;21.58;60.37
59493;BME280;45497;43.996;22.876;2023-07-02T05:09:30;100344.06;;;21.56;60.26
59493;BME280;45497;43.996;22.876;2023-07-02T05:11:56;100353.09;;;21.67;60.19
59493;BME280;45497;43.996;22.876;2023-07-02T05:14:22;100346.44;;;21.74;59.80
59493;BME280;45497;43.996;22.876;2023-07-02T05:16:48;100341.09;;;21.80;59.71
59493;BME280;45497;43.996;22.876;2023-07-02T05:19:14;100342.16;;;21.79;59.95
59493;BME280;45497;43.996;22.876;2023-07-02T05:21:40;100336.50;;;21.80;59.94
59493;BME280;45497;43.996;22.876;2023-07-02T05:24:06;100343.03;;;21.84;60.06
59493;BME280;45497;43.996;22.876;2023-07-02T05:26:32;100338.19;;;21.86;59.91
59493;BME280;45497;43.996;22.876;2023-07-02T05:28:58;100344.78;;;21.95;59.75
59493;BME280;45497;43.996;22.876;2023-07-02T05:31:23;100346.66;;;21.95;59.52
59493;BME280;45497;43.996;22.876;2023-07-02T05:33:49;100346.78;;;21.83;59.95
59493;BME280;45497;43.996;22.876;2023-07-02T05:36:15;100357.84;;;21.82;60.26
59493;BME280;45497;43.996;22.876;2023-07-02T05:38:40;100356.31;;;21.91;59.93
59493;BME280;45497;43.996;22.876;2023-07-02T05:41:06;100352.63;;;21.97;59.75
59493;BME280;45497;43.996;22.876;2023-07-02T05:43:31;100346.38;;;21.96;60.07
59493;BME280;45497;43.996;22.876;2023-07-02T05:45:59;100358.38;;;22.06;60.20
59493;BME280;45497;43.996;22.876;2023-07-02T05:48:28;100357.59;;;22.10;60.21
59493;BME280;45497;43.996;22.876;2023-07-02T05:50:54;100357.78;;;22.04;60.69
59493;BME280;45497;43.996;22.876;2023-07-02T05:53:20;100360.03;;;22.12;60.58
59493;BME280;45497;43.996;22.876;2023-07-02T05:55:46;100362.78;;;22.17;60.90
59493;BME280;45497;43.996;22.876;2023-07-02T05:58:12;100369.94;;;22.28;60.93
59493;BME280;45497;43.996;22.876;2023-07-02T06:00:37;100365.84;;;22.26;61.07
59493;BME280;45497;43.996;22.876;2023-07-02T06:03:04;100355.38;;;22.29;61.08
59493;BME280;45497;43.996;22.876;2023-07-02T06:05:30;100360.81;;;22.35;61.33
59493;BME280;45497;43.996;22.876;2023-07-02T06:07:55;100363.25;;;22.36;61.29
59493;BME280;45497;43.996;22.876;2023-07-02T06:10:21;100366.25;;;22.40;61.20
59493;BME280;45497;43.996;22.876;2023-07-02T06:12:46;100370.38;;;22.47;61.14
59493;BME280;45497;43.996;22.876;2023-07-02T06:15:12;100359.88;;;22.51;61.30
59493;BME280;45497;43.996;22.876;2023-07-02T06:17:37;100360.38;;;22.48;61.40
59493;BME280;45497;43.996;22.876;2023-07-02T06:20:04;100372.00;;;22.48;61.54
59493;BME280;45497;43.996;22.876;2023-07-02T06:22:30;100375.00;;;22.52;61.80
59493;BME280;45497;43.996;22.876;2023-07-02T06:24:56;100373.16;;;22.58;61.81
59493;BME280;45497;43.996;22.876;2023-07-02T06:27:21;100375.09;;;22.62;61.54
59493;BME280;45497;43.996;22.876;2023-07-02T06:29:47;100369.19;;;22.65;61.34
59493;BME280;45497;43.996;22.876;2023-07-02T06:32:12;100371.34;;;22.68;61.05
59493;BME280;45497;43.996;22.876;2023-07-02T06:34:38;100372.38;;;22.62;61.13
59493;BME280;45497;43.996;22.876;2023-07-02T06:37:05;100365.25;;;22.46;61.03
59493;BME280;45497;43.996;22.876;2023-07-02T06:39:30;100366.84;;;22.47;61.49
59493;BME280;45497;43.996;22.876;2023-07-02T06:41:56;100365.59;;;22.60;61.40
59493;BME280;45497;43.996;22.876;2023-07-02T06:44:21;100362.72;;;22.71;61.06
59493;BME280;45497;43.996;22.876;2023-07-02T06:46:47;100368.47;;;22.80;61.22
59493;BME280;45497;43.996;22.876;2023-07-02T06:49:12;100369.31;;;22.86;61.02
59493;BME280;45497;43.996;22.876;2023-07-02T06:51:38;100370.94;;;22.87;61.29
59493;BME280;45497;43.996;22.876;2023-07-02T06:54:04;100376.91;;;22.89;61.45
59493;BME280;45497;43.996;22.876;2023-07-02T06:56:30;100376.66;;;22.96;61.48
59493;BME280;45497;43.996;22.876;2023-07-02T06:58:57;100372.38;;;23.00;61.63
59493;BME280;45497;43.996;22.876;2023-07-02T07:01:23;100362.72;;;23.09;61.54
59493;BME280;45497;43.996;22.876;2023-07-02T07:03:48;100374.41;;;23.20;61.27
59493;BME280;45497;43.996;22.876;2023-07-02T07:06:14;100369.84;;;23.25;61.31
59493;BME280;45497;43.996;22.876;2023-07-02T07:08:39;100362.53;;;23.26;61.20
59493;BME280;45497;43.996;22.876;2023-07-02T07:11:05;100361.22;;;23.34;61.17
59493;BME280;45497;43.996;22.876;2023-07-02T07:13:30;100361.47;;;23.27;61.30
59493;BME280;45497;43.996;22.876;2023-07-02T07:15:56;100361.97;;;23.24;60.99
59493;BME280;45497;43.996;22.876;2023-07-02T07:18:21;100362.56;;;23.31;61.06
59493;BME280;45497;43.996;22.876;2023-07-02T07:20:47;100363.97;;;23.44;60.81
59493;BME280;45497;43.996;22.876;2023-07-02T07:23:12;100374.28;;;23.52;60.73
59493;BME280;45497;43.996;22.876;2023-07-02T07:25:38;100363.47;;;23.52;60.70
59493;BME280;45497;43.996;22.876;2023-07-02T07:28:03;100374.59;;;23.61;60.44
59493;BME280;45497;43.996;22.876;2023-07-02T07:30:29;100371.34;;;23.69;60.17
59493;BME280;45497;43.996;22.876;2023-07-02T07:32:56;100368.91;;;23.67;59.82
59493;BME280;45497;43.996;22.876;2023-07-02T07:35:21;100373.56;;;23.77;59.44
59493;BME280;45497;43.996;22.876;2023-07-02T07:37:47;100376.03;;;23.84;59.27
59493;BME280;45497;43.996;22.876;2023-07-02T07:40:13;100376.63;;;24.01;59.09
59493;BME280;45497;43.996;22.876;2023-07-02T07:42:40;100377.97;;;24.09;59.08
59493;BME280;45497;43.996;22.876;2023-07-02T07:45:07;100376.13;;;24.15;58.79
59493;BME280;45497;43.996;22.876;2023-07-02T07:47:33;100376.94;;;24.20;58.72
59493;BME280;45497;43.996;22.876;2023-07-02T07:49:58;100378.56;;;24.27;58.84
59493;BME280;45497;43.996;22.876;2023-07-02T07:52:24;100379.09;;;24.29;58.40
59493;BME280;45497;43.996;22.876;2023-07-02T07:54:49;100383.16;;;24.31;58.39
59493;BME280;45497;43.996;22.876;2023-07-02T07:57:15;100378.03;;;24.40;57.85
59493;BME280;45497;43.996;22.876;2023-07-02T07:59:40;100377.50;;;24.53;57.67
59493;BME280;45497;43.996;22.876;2023-07-02T08:02:06;100376.97;;;24.61;57.42
59493;BME280;45497;43.996;22.876;2023-07-02T08:04:31;100383.19;;;24.72;57.43
59493;BME280;45497;43.996;22.876;2023-07-02T08:06:57;100374.22;;;24.77;57.54
59493;BME280;45497;43.996;22.876;2023-07-02T08:09:23;100385.88;;;24.88;57.13
59493;BME280;45497;43.996;22.876;2023-07-02T08:11:49;100383.69;;;24.90;56.97
59493;BME280;45497;43.996;22.876;2023-07-02T08:14:16;100382.03;;;25.04;56.85
59493;BME280;45497;43.996;22.876;2023-07-02T08:16:41;100385.56;;;25.05;56.63
59493;BME280;45497;43.996;22.876;2023-07-02T08:19:07;100378.22;;;25.15;56.29
59493;BME280;45497;43.996;22.876;2023-07-02T08:21:32;100380.38;;;25.13;55.80
59493;BME280;45497;43.996;22.876;2023-07-02T08:23:58;100369.53;;;25.13;55.67
59493;BME280;45497;43.996;22.876;2023-07-02T08:26:23;100372.78;;;25.26;55.40
59493;BME280;45497;43.996;22.876;2023-07-02T08:28:49;100373.06;;;25.24;55.68
59493;BME280;45497;43.996;22.876;2023-07-02T08:31:14;100371.97;;;25.35;55.65
59493;BME280;45497;43.996;22.876;2023-07-02T08:33:40;100369.28;;;25.30;55.03
59493;BME280;45497;43.996;22.876;2023-07-02T08:36:06;100373.31;;;25.38;55.11
59493;BME280;45497;43.996;22.876;2023-07-02T08:38:31;100376.78;;;25.54;54.89
59493;BME280;45497;43.996;22.876;2023-07-02T08:40:57;100375.34;;;25.67;54.64
59493;BME280;45497;43.996;22.876;2023-07-02T08:43:23;100370.78;;;25.57;54.19
59493;BME280;45497;43.996;22.876;2023-07-02T08:45:51;100372.59;;;25.72;54.16
59493;BME280;45497;43.996;22.876;2023-07-02T08:48:17;100372.31;;;25.79;53.89
59493;BME280;45497;43.996;22.876;2023-07-02T08:50:48;100363.84;;;25.85;53.64
59493;BME280;45497;43.996;22.876;2023-07-02T08:53:14;100361.47;;;25.73;53.12
59493;BME280;45497;43.996;22.876;2023-07-02T08:55:40;100362.78;;;25.81;53.52
59493;BME280;45497;43.996;22.876;2023-07-02T08:58:05;100376.59;;;25.95;53.04
59493;BME280;45497;43.996;22.876;2023-07-02T09:00:31;100360.28;;;25.90;53.35
59493;BME280;45497;43.996;22.876;2023-07-02T09:03:13;100367.53;;;26.05;52.89
59493;BME280;45497;43.996;22.876;2023-07-02T09:05:53;100375.47;;;25.91;52.40
59493;BME280;45497;43.996;22.876;2023-07-02T09:10:52;100367.50;;;26.15;52.70
59493;BME280;45497;43.996;22.876;2023-07-02T09:13:18;100365.88;;;26.09;52.48
59493;BME280;45497;43.996;22.876;2023-07-02T09:15:43;100372.38;;;26.18;52.22
59493;BME280;45497;43.996;22.876;2023-07-02T09:18:19;100358.13;;;26.31;52.35
59493;BME280;45497;43.996;22.876;2023-07-02T09:20:45;100361.72;;;26.56;52.30
59493;BME280;45497;43.996;22.876;2023-07-02T09:23:11;100363.47;;;26.76;52.03
59493;BME280;45497;43.996;22.876;2023-07-02T09:25:38;100351.91;;;26.89;51.79
59493;BME280;45497;43.996;22.876;2023-07-02T09:28:33;100369.47;;;26.73;51.21
59493;BME280;45497;43.996;22.876;2023-07-02T09:30:58;100354.16;;;26.82;51.55
59493;BME280;45497;43.996;22.876;2023-07-02T09:33:25;100359.72;;;27.20;51.51
59493;BME280;45497;43.996;22.876;2023-07-02T09:35:51;100353.13;;;27.51;51.80
59493;BME280;45497;43.996;22.876;2023-07-02T09:38:21;100340.91;;;27.67;51.46
59493;BME280;45497;43.996;22.876;2023-07-02T09:40:49;100345.78;;;27.70;51.20
59493;BME280;45497;43.996;22.876;2023-07-02T09:43:16;100342.53;;;27.87;50.84
59493;BME280;45497;43.996;22.876;2023-07-02T09:45:47;100338.44;;;27.90;51.06
59493;BME280;45497;43.996;22.876;2023-07-02T09:48:14;100342.94;;;27.99;51.24
59493;BME280;45497;43.996;22.876;2023-07-02T09:50:44;100335.91;;;28.12;50.96
59493;BME280;45497;43.996;22.876;2023-07-02T09:53:11;100333.59;;;28.38;50.63
59493;BME280;45497;43.996;22.876;2023-07-02T09:55:38;100343.28;;;28.45;50.21
59493;BME280;45497;43.996;22.876;2023-07-02T09:58:04;100335.59;;;28.33;49.40
59493;BME280;45497;43.996;22.876;2023-07-02T10:00:30;100337.59;;;28.27;48.63
59493;BME280;45497;43.996;22.876;2023-07-02T10:02:56;100317.94;;;28.44;49.04
59493;BME280;45497;43.996;22.876;2023-07-02T10:05:30;100331.34;;;28.59;47.92
59493;BME280;45497;43.996;22.876;2023-07-02T10:08:14;100321.66;;;28.67;48.51
59493;BME280;45497;43.996;22.876;2023-07-02T10:10:42;100324.63;;;28.52;49.00
59493;BME280;45497;43.996;22.876;2023-07-02T10:13:07;100327.00;;;28.58;49.16
59493;BME280;45497;43.996;22.876;2023-07-02T10:15:33;100319.69;;;28.21;49.26
59493;BME280;45497;43.996;22.876;2023-07-02T10:18:03;100313.22;;;28.17;49.27
59493;BME280;45497;43.996;22.876;2023-07-02T10:22:59;100311.47;;;29.01;48.81
59493;BME280;45497;43.996;22.876;2023-07-02T10:25:29;100305.19;;;29.14;48.08
59493;BME280;45497;43.996;22.876;2023-07-02T10:27:55;100312.78;;;29.03;46.82
59493;BME280;45497;43.996;22.876;2023-07-02T10:30:31;100300.47;;;29.20;46.91
59493;BME280;45497;43.996;22.876;2023-07-02T10:33:13;100302.69;;;29.17;45.62
59493;BME280;45497;43.996;22.876;2023-07-02T10:35:39;100296.19;;;29.13;45.95
59493;BME280;45497;43.996;22.876;2023-07-02T10:38:12;100305.00;;;29.24;45.90
59493;BME280;45497;43.996;22.876;2023-07-02T10:40:41;100302.53;;;29.50;45.23
59493;BME280;45497;43.996;22.876;2023-07-02T10:43:07;100295.47;;;29.72;45.01
59493;BME280;45497;43.996;22.876;2023-07-02T10:45:34;100287.50;;;29.39;44.89
59493;BME280;45497;43.996;22.876;2023-07-02T10:48:04;100286.16;;;29.36;44.93
59493;BME280;45497;43.996;22.876;2023-07-02T10:50:31;100282.25;;;29.29;43.65
59493;BME280;45497;43.996;22.876;2023-07-02T10:52:57;100273.69;;;28.94;43.55
59493;BME280;45497;43.996;22.876;2023-07-02T10:55:24;100276.69;;;29.20;43.69
59493;BME280;45497;43.996;22.876;2023-07-02T10:57:51;100277.78;;;29.33;43.77
59493;BME280;45497;43.996;22.876;2023-07-02T11:00:27;100281.19;;;29.39;43.32
59493;BME280;45497;43.996;22.876;2023-07-02T11:02:52;100269.59;;;29.33;43.18
59493;BME280;45497;43.996;22.876;2023-07-02T11:05:18;100267.81;;;29.51;42.17
59493;BME280;45497;43.996;22.876;2023-07-02T11:07:43;100262.84;;;29.53;42.18
59493;BME280;45497;43.996;22.876;2023-07-02T11:10:10;100271.44;;;29.60;43.11
59493;BME280;45497;43.996;22.876;2023-07-02T11:12:36;100265.66;;;29.62;42.65
59493;BME280;45497;43.996;22.876;2023-07-02T11:15:16;100256.97;;;29.60;42.44
59493;BME280;45497;43.996;22.876;2023-07-02T11:17:45;100248.63;;;30.01;42.93
59493;BME280;45497;43.996;22.876;2023-07-02T11:20:12;100243.38;;;30.36;41.94
59493;BME280;45497;43.996;22.876;2023-07-02T11:22:39;100250.47;;;30.37;41.09
59493;BME280;45497;43.996;22.876;2023-07-02T11:25:14;100248.38;;;30.11;40.67
59493;BME280;45497;43.996;22.876;2023-07-02T11:27:41;100240.69;;;29.91;40.63
59493;BME280;45497;43.996;22.876;2023-07-02T11:30:07;100242.34;;;30.01;41.01
59493;BME280;45497;43.996;22.876;2023-07-02T11:32:52;100245.16;;;30.41;40.94
59493;BME280;45497;43.996;22.876;2023-07-02T11:35:18;100250.84;;;30.53;39.72
59493;BME280;45497;43.996;22.876;2023-07-02T11:37:44;100237.38;;;30.65;40.50
59493;BME280;45497;43.996;22.876;2023-07-02T11:40:11;100246.00;;;30.50;39.54
59493;BME280;45497;43.996;22.876;2023-07-02T11:42:37;100240.28;;;30.69;40.10
59493;BME280;45497;43.996;22.876;2023-07-02T11:45:03;100234.72;;;30.92;40.23
59493;BME280;45497;43.996;22.876;2023-07-02T11:47:29;100230.91;;;31.01;39.85
59493;BME280;45497;43.996;22.876;2023-07-02T11:49:54;100219.81;;;31.06;39.64
59493;BME280;45497;43.996;22.876;2023-07-02T11:52:20;100222.69;;;31.28;39.66
59493;BME280;45497;43.996;22.876;2023-07-02T11:54:46;100233.84;;;31.49;40.15
59493;BME280;45497;43.996;22.876;2023-07-02T11:57:12;100237.72;;;31.65;39.83
59493;BME280;45497;43.996;22.876;2023-07-02T11:59:38;100244.94;;;31.87;39.24
59493;BME280;45497;43.996;22.876;2023-07-02T12:02:03;100239.81;;;31.77;38.52
59493;BME280;45497;43.996;22.876;2023-07-02T12:04:29;100248.81;;;31.86;38.94
59493;BME280;45497;43.996;22.876;2023-07-02T12:06:54;100276.41;;;31.72;37.52
59493;BME280;45497;43.996;22.876;2023-07-02T12:09:20;100272.97;;;30.11;38.73
59493;BME280;45497;43.996;22.876;2023-07-02T12:11:45;100283.41;;;28.39;39.85
59493;BME280;45497;43.996;22.876;2023-07-02T12:14:11;100286.47;;;27.48;40.94
59493;BME280;45497;43.996;22.876;2023-07-02T12:16:37;100300.69;;;26.09;45.11
59493;BME280;45497;43.996;22.876;2023-07-02T12:19:02;100327.28;;;24.92;46.37
59493;BME280;45497;43.996;22.876;2023-07-02T12:21:28;100286.72;;;24.40;44.68
59493;BME280;45497;43.996;22.876;2023-07-02T12:23:54;100289.81;;;25.25;42.97
59493;BME280;45497;43.996;22.876;2023-07-02T12:26:19;100283.84;;;25.67;42.75
59493;BME280;45497;43.996;22.876;2023-07-02T12:28:45;100297.25;;;25.98;42.49
59493;BME280;45497;43.996;22.876;2023-07-02T12:31:10;100302.75;;;25.88;42.34
59493;BME280;45497;43.996;22.876;2023-07-02T12:33:38;100302.78;;;25.83;43.57
59493;BME280;45497;43.996;22.876;2023-07-02T12:36:03;100314.59;;;26.07;44.17
59493;BME280;45497;43.996;22.876;2023-07-02T12:38:29;100317.84;;;26.04;45.43
59493;BME280;45497;43.996;22.876;2023-07-02T12:40:54;100314.63;;;26.02;46.71
59493;BME280;45497;43.996;22.876;2023-07-02T12:43:20;100309.19;;;26.02;48.01